sensor_id;sensor_type;location;lat;lon;timestamp;P1;durP1;ratioP1;P2;durP2;ratioP2
18320;SDS011;54904;54.350;18.664;2023-07-13T00:01:49;1.42;;;1.33;;
18320;SDS011;54904;54.350;18.664;2023-07-13T00:04:17;1.60;;;1.50;;
18320;SDS011;54904;54.350;18.664;2023-07-13T00:06:46;1.42;;;1.35;;
18320;SDS011;54904;54.350;18.664;2023-07-13T00:09:14;2.35;;;1.55;;
18320;SDS011;54904;54.350;18.664;2023-07-13T00:11:42;1.60;;;1.50;;
18320;SDS011;54904;54.350;18.664;2023-07-13T00:14:10;1.38;;;1.27;;
18320;SDS011;54904;54.350;18.664;2023-07-13T00:16:39;1.75;;;1.65;;
18320;SDS011;54904;54.350;18.664;2023-07-13T00:19:09;1.70;;;1.50;;
18320;SDS011;54904;54.350;18.664;2023-07-13T00:21:36;1.60;;;1.50;;
18320;SDS011;54904;54.350;18.664;2023-07-13T00:24:04;4.47;;;1.88;;
18320;SDS011;54904;54.350;18.664;2023-07-13T00:26:31;1.67;;;1.58;;
18320;SDS011;54904;54.350;18.664;2023-07-13T00:28:59;1.55;;;1.45;;
18320;SDS011;54904;54.350;18.664;2023-07-13T00:31:28;1.67;;;1.58;;
18320;SDS011;54904;54.350;18.664;2023-07-13T00:33:56;2.80;;;1.40;;
18320;SDS011;54904;54.350;18.664;2023-07-13T00:36:25;1.40;;;1.30;;
18320;SDS011;54904;54.350;18.664;2023-07-13T00:38:52;1.60;;;1.45;;
18320;SDS011;54904;54.350;18.664;2023-07-13T00:41:19;1.60;;;1.50;;
18320;SDS011;54904;54.350;18.664;2023-07-13T00:43:47;1.50;;;1.40;;
18320;SDS011;54904;54.350;18.664;2023-07-13T00:46:16;1.20;;;1.20;;
18320;SDS011;54904;54.350;18.664;2023-07-13T00:48:45;2.08;;;1.60;;
18320;SDS011;54904;54.350;18.664;2023-07-13T00:51:16;1.70;;;1.60;;
18320;SDS011;54904;54.350;18.664;2023-07-13T00:53:46;1.70;;;1.60;;
18320;SDS011;54904;54.350;18.664;2023-07-13T00:56:13;3.47;;;2.30;;
18320;SDS011;54904;54.350;18.664;2023-07-13T00:58:45;1.73;;;1.63;;
18320;SDS011;54904;54.350;18.664;2023-07-13T01:01:12;3.33;;;2.47;;
18320;SDS011;54904;54.350;18.664;2023-07-13T01:03:40;2.30;;;2.10;;
18320;SDS011;54904;54.350;18.664;2023-07-13T01:06:07;3.20;;;2.67;;
18320;SDS011;54904;54.350;18.664;2023-07-13T01:08:36;2.78;;;2.53;;
18320;SDS011;54904;54.350;18.664;2023-07-13T01:11:04;4.03;;;2.75;;
18320;SDS011;54904;54.350;18.664;2023-07-13T01:13:33;5.55;;;2.50;;
18320;SDS011;54904;54.350;18.664;2023-07-13T01:16:02;2.50;;;2.15;;
18320;SDS011;54904;54.350;18.664;2023-07-13T01:18:33;2.25;;;2.05;;
18320;SDS011;54904;54.350;18.664;2023-07-13T01:21:02;2.10;;;2.00;;
18320;SDS011;54904;54.350;18.664;2023-07-13T01:23:31;2.63;;;1.95;;
18320;SDS011;54904;54.350;18.664;2023-07-13T01:25:59;1.77;;;1.67;;
18320;SDS011;54904;54.350;18.664;2023-07-13T01:28:27;1.67;;;1.58;;
18320;SDS011;54904;54.350;18.664;2023-07-13T01:30:56;1.70;;;1.60;;
18320;SDS011;54904;54.350;18.664;2023-07-13T01:33:24;2.75;;;1.90;;
18320;SDS011;54904;54.350;18.664;2023-07-13T01:35:52;1.70;;;1.60;;
18320;SDS011;54904;54.350;18.664;2023-07-13T01:38:24;2.10;;;2.00;;
18320;SDS011;54904;54.350;18.664;2023-07-13T01:40:52;2.00;;;1.90;;
18320;SDS011;54904;54.350;18.664;2023-07-13T01:43:21;2.25;;;2.00;;
18320;SDS011;54904;54.350;18.664;2023-07-13T01:45:49;1.65;;;1.55;;
18320;SDS011;54904;54.350;18.664;2023-07-13T01:48:16;1.98;;;1.88;;
18320;SDS011;54904;54.350;18.664;2023-07-13T01:50:44;1.98;;;1.77;;
18320;SDS011;54904;54.350;18.664;2023-07-13T01:53:11;2.00;;;1.90;;
18320;SDS011;54904;54.350;18.664;2023-07-13T01:55:41;3.15;;;2.47;;
18320;SDS011;54904;54.350;18.664;2023-07-13T01:58:08;2.20;;;2.10;;
18320;SDS011;54904;54.350;18.664;2023-07-13T02:00:35;1.92;;;1.58;;
18320;SDS011;54904;54.350;18.664;2023-07-13T02:03:02;1.80;;;1.70;;
18320;SDS011;54904;54.350;18.664;2023-07-13T02:05:31;2.28;;;1.80;;
18320;SDS011;54904;54.350;18.664;2023-07-13T02:07:58;2.00;;;1.55;;
18320;SDS011;54904;54.350;18.664;2023-07-13T02:10:25;1.60;;;1.50;;
18320;SDS011;54904;54.350;18.664;2023-07-13T02:12:55;1.50;;;1.40;;
18320;SDS011;54904;54.350;18.664;2023-07-13T02:15:22;1.30;;;1.30;;
18320;SDS011;54904;54.350;18.664;2023-07-13T02:17:49;2.13;;;1.65;;
18320;SDS011;54904;54.350;18.664;2023-07-13T02:20:16;2.08;;;1.30;;
18320;SDS011;54904;54.350;18.664;2023-07-13T02:22:44;1.65;;;1.55;;
18320;SDS011;54904;54.350;18.664;2023-07-13T02:25:11;2.20;;;1.50;;
18320;SDS011;54904;54.350;18.664;2023-07-13T02:27:38;1.60;;;1.50;;
18320;SDS011;54904;54.350;18.664;2023-07-13T02:30:07;1.25;;;1.23;;
18320;SDS011;54904;54.350;18.664;2023-07-13T02:32:35;1.77;;;1.42;;
18320;SDS011;54904;54.350;18.664;2023-07-13T02:35:02;1.40;;;1.27;;
18320;SDS011;54904;54.350;18.664;2023-07-13T02:37:30;1.25;;;1.20;;
18320;SDS011;54904;54.350;18.664;2023-07-13T02:39:57;1.48;;;1.27;;
18320;SDS011;54904;54.350;18.664;2023-07-13T02:42:24;1.10;;;1.10;;
18320;SDS011;54904;54.350;18.664;2023-07-13T02:44:51;1.25;;;1.10;;
18320;SDS011;54904;54.350;18.664;2023-07-13T02:47:20;1.20;;;1.20;;
18320;SDS011;54904;54.350;18.664;2023-07-13T02:49:47;1.15;;;1.15;;
18320;SDS011;54904;54.350;18.664;2023-07-13T02:52:14;1.02;;;1.02;;
18320;SDS011;54904;54.350;18.664;2023-07-13T02:54:41;3.08;;;1.55;;
18320;SDS011;54904;54.350;18.664;2023-07-13T02:57:09;2.10;;;1.30;;
18320;SDS011;54904;54.350;18.664;2023-07-13T02:59:36;1.23;;;1.20;;
18320;SDS011;54904;54.350;18.664;2023-07-13T03:02:04;1.10;;;1.00;;
18320;SDS011;54904;54.350;18.664;2023-07-13T03:04:32;1.20;;;1.20;;
18320;SDS011;54904;54.350;18.664;2023-07-13T03:07:01;1.13;;;1.13;;
18320;SDS011;54904;54.350;18.664;2023-07-13T03:09:34;1.00;;;1.00;;
18320;SDS011;54904;54.350;18.664;2023-07-13T03:12:04;4.18;;;1.40;;
18320;SDS011;54904;54.350;18.664;2023-07-13T03:14:32;1.65;;;1.45;;
18320;SDS011;54904;54.350;18.664;2023-07-13T03:17:00;1.60;;;1.50;;
18320;SDS011;54904;54.350;18.664;2023-07-13T03:19:30;3.05;;;1.35;;
18320;SDS011;54904;54.350;18.664;2023-07-13T03:22:00;1.15;;;1.15;;
18320;SDS011;54904;54.350;18.664;2023-07-13T03:24:28;1.10;;;1.10;;
18320;SDS011;54904;54.350;18.664;2023-07-13T03:26:56;1.02;;;1.02;;
18320;SDS011;54904;54.350;18.664;2023-07-13T03:29:24;0.90;;;0.90;;
18320;SDS011;54904;54.350;18.664;2023-07-13T03:31:51;1.48;;;1.08;;
18320;SDS011;54904;54.350;18.664;2023-07-13T03:34:19;1.17;;;1.08;;
18320;SDS011;54904;54.350;18.664;2023-07-13T03:36:47;0.90;;;0.90;;
18320;SDS011;54904;54.350;18.664;2023-07-13T03:39:15;1.20;;;1.10;;
18320;SDS011;54904;54.350;18.664;2023-07-13T03:41:46;1.42;;;0.93;;
18320;SDS011;54904;54.350;18.664;2023-07-13T03:44:15;1.20;;;1.10;;
18320;SDS011;54904;54.350;18.664;2023-07-13T03:46:43;1.45;;;1.35;;
18320;SDS011;54904;54.350;18.664;2023-07-13T03:49:12;1.00;;;1.00;;
18320;SDS011;54904;54.350;18.664;2023-07-13T03:51:39;1.13;;;1.02;;
18320;SDS011;54904;54.350;18.664;2023-07-13T03:54:08;0.90;;;0.90;;
18320;SDS011;54904;54.350;18.664;2023-07-13T03:56:36;1.10;;;1.00;;
18320;SDS011;54904;54.350;18.664;2023-07-13T03:59:05;1.20;;;1.10;;
18320;SDS011;54904;54.350;18.664;2023-07-13T04:01:32;1.35;;;0.88;;
18320;SDS011;54904;54.350;18.664;2023-07-13T04:04:00;1.00;;;0.88;;
18320;SDS011;54904;54.350;18.664;2023-07-13T04:06:28;0.90;;;0.90;;
18320;SDS011;54904;54.350;18.664;2023-07-13T04:08:57;0.95;;;0.95;;
18320;SDS011;54904;54.350;18.664;2023-07-13T04:11:27;0.90;;;0.90;;
18320;SDS011;54904;54.350;18.664;2023-07-13T04:13:56;0.90;;;0.90;;
18320;SDS011;54904;54.350;18.664;2023-07-13T04:16:24;1.40;;;1.30;;
18320;SDS011;54904;54.350;18.664;2023-07-13T04:18:52;0.98;;;0.93;;
18320;SDS011;54904;54.350;18.664;2023-07-13T04:21:25;1.25;;;1.00;;
18320;SDS011;54904;54.350;18.664;2023-07-13T04:23:53;0.90;;;0.90;;
18320;SDS011;54904;54.350;18.664;2023-07-13T04:26:20;1.00;;;0.95;;
18320;SDS011;54904;54.350;18.664;2023-07-13T04:28:49;0.90;;;0.90;;
18320;SDS011;54904;54.350;18.664;2023-07-13T04:31:16;0.80;;;0.80;;
18320;SDS011;54904;54.350;18.664;2023-07-13T04:33:44;1.00;;;1.00;;
18320;SDS011;54904;54.350;18.664;2023-07-13T04:36:11;1.13;;;1.00;;
18320;SDS011;54904;54.350;18.664;2023-07-13T04:38:38;1.00;;;1.00;;
18320;SDS011;54904;54.350;18.664;2023-07-13T04:41:07;1.20;;;1.10;;
18320;SDS011;54904;54.350;18.664;2023-07-13T04:43:35;1.70;;;1.17;;
18320;SDS011;54904;54.350;18.664;2023-07-13T04:46:04;1.10;;;1.00;;
18320;SDS011;54904;54.350;18.664;2023-07-13T04:48:33;1.05;;;0.80;;
18320;SDS011;54904;54.350;18.664;2023-07-13T04:51:00;1.17;;;1.02;;
18320;SDS011;54904;54.350;18.664;2023-07-13T04:53:28;1.10;;;1.00;;
18320;SDS011;54904;54.350;18.664;2023-07-13T04:55:56;1.33;;;1.00;;
18320;SDS011;54904;54.350;18.664;2023-07-13T04:58:23;0.90;;;0.90;;
18320;SDS011;54904;54.350;18.664;2023-07-13T05:00:51;0.70;;;0.68;;
18320;SDS011;54904;54.350;18.664;2023-07-13T05:03:19;0.88;;;0.70;;
18320;SDS011;54904;54.350;18.664;2023-07-13T05:05:54;1.40;;;0.77;;
18320;SDS011;54904;54.350;18.664;2023-07-13T05:08:22;1.08;;;0.98;;
18320;SDS011;54904;54.350;18.664;2023-07-13T05:10:49;1.88;;;1.10;;
18320;SDS011;54904;54.350;18.664;2023-07-13T05:13:17;1.00;;;1.00;;
18320;SDS011;54904;54.350;18.664;2023-07-13T05:15:44;0.80;;;0.80;;
18320;SDS011;54904;54.350;18.664;2023-07-13T05:18:11;0.93;;;0.93;;
18320;SDS011;54904;54.350;18.664;2023-07-13T05:20:40;0.77;;;0.77;;
18320;SDS011;54904;54.350;18.664;2023-07-13T05:23:07;1.15;;;0.80;;
18320;SDS011;54904;54.350;18.664;2023-07-13T05:25:34;1.10;;;1.00;;
18320;SDS011;54904;54.350;18.664;2023-07-13T05:28:01;0.85;;;0.70;;
18320;SDS011;54904;54.350;18.664;2023-07-13T05:30:28;0.80;;;0.80;;
18320;SDS011;54904;54.350;18.664;2023-07-13T05:32:55;0.70;;;0.70;;
18320;SDS011;54904;54.350;18.664;2023-07-13T05:35:25;0.70;;;0.70;;
18320;SDS011;54904;54.350;18.664;2023-07-13T05:37:53;1.73;;;0.90;;
18320;SDS011;54904;54.350;18.664;2023-07-13T05:40:20;1.10;;;1.05;;
18320;SDS011;54904;54.350;18.664;2023-07-13T05:42:47;0.70;;;0.70;;
18320;SDS011;54904;54.350;18.664;2023-07-13T05:45:14;1.30;;;0.90;;
18320;SDS011;54904;54.350;18.664;2023-07-13T05:47:41;0.75;;;0.75;;
18320;SDS011;54904;54.350;18.664;2023-07-13T05:50:09;2.15;;;1.10;;
18320;SDS011;54904;54.350;18.664;2023-07-13T05:52:36;1.10;;;1.00;;
18320;SDS011;54904;54.350;18.664;2023-07-13T05:55:05;1.38;;;0.90;;
18320;SDS011;54904;54.350;18.664;2023-07-13T05:57:32;1.27;;;1.00;;
18320;SDS011;54904;54.350;18.664;2023-07-13T06:00:00;2.17;;;1.10;;
18320;SDS011;54904;54.350;18.664;2023-07-13T06:02:37;0.98;;;0.98;;
18320;SDS011;54904;54.350;18.664;2023-07-13T06:05:05;0.80;;;0.80;;
18320;SDS011;54904;54.350;18.664;2023-07-13T06:07:32;1.00;;;0.90;;
18320;SDS011;54904;54.350;18.664;2023-07-13T06:09:59;1.08;;;1.08;;
18320;SDS011;54904;54.350;18.664;2023-07-13T06:12:28;1.50;;;0.80;;
18320;SDS011;54904;54.350;18.664;2023-07-13T06:14:55;0.80;;;0.80;;
18320;SDS011;54904;54.350;18.664;2023-07-13T06:17:22;0.70;;;0.70;;
18320;SDS011;54904;54.350;18.664;2023-07-13T06:19:49;0.60;;;0.60;;
18320;SDS011;54904;54.350;18.664;2023-07-13T06:22:16;1.23;;;0.68;;
18320;SDS011;54904;54.350;18.664;2023-07-13T06:24:43;0.60;;;0.60;;
18320;SDS011;54904;54.350;18.664;2023-07-13T06:27:10;1.63;;;1.00;;
18320;SDS011;54904;54.350;18.664;2023-07-13T06:29:39;1.00;;;1.00;;
18320;SDS011;54904;54.350;18.664;2023-07-13T06:32:06;0.93;;;0.90;;
18320;SDS011;54904;54.350;18.664;2023-07-13T06:34:34;0.70;;;0.70;;
18320;SDS011;54904;54.350;18.664;2023-07-13T06:37:01;1.20;;;1.10;;
18320;SDS011;54904;54.350;18.664;2023-07-13T06:39:29;0.80;;;0.80;;
18320;SDS011;54904;54.350;18.664;2023-07-13T06:41:56;1.38;;;0.68;;
18320;SDS011;54904;54.350;18.664;2023-07-13T06:44:23;0.70;;;0.70;;
18320;SDS011;54904;54.350;18.664;2023-07-13T06:46:51;0.90;;;0.90;;
18320;SDS011;54904;54.350;18.664;2023-07-13T06:49:18;0.60;;;0.60;;
18320;SDS011;54904;54.350;18.664;2023-07-13T06:51:48;2.15;;;0.95;;
18320;SDS011;54904;54.350;18.664;2023-07-13T06:54:15;0.68;;;0.68;;
18320;SDS011;54904;54.350;18.664;2023-07-13T06:56:43;0.95;;;0.80;;
18320;SDS011;54904;54.350;18.664;2023-07-13T06:59:10;0.70;;;0.70;;
18320;SDS011;54904;54.350;18.664;2023-07-13T07:01:37;0.88;;;0.88;;
18320;SDS011;54904;54.350;18.664;2023-07-13T07:04:05;1.00;;;1.00;;
18320;SDS011;54904;54.350;18.664;2023-07-13T07:06:32;0.85;;;0.85;;
18320;SDS011;54904;54.350;18.664;2023-07-13T07:09:04;0.68;;;0.68;;
18320;SDS011;54904;54.350;18.664;2023-07-13T07:11:32;1.17;;;0.85;;
18320;SDS011;54904;54.350;18.664;2023-07-13T07:13:59;0.77;;;0.77;;
18320;SDS011;54904;54.350;18.664;2023-07-13T07:16:26;0.65;;;0.65;;
18320;SDS011;54904;54.350;18.664;2023-07-13T07:18:53;0.70;;;0.70;;
18320;SDS011;54904;54.350;18.664;2023-07-13T07:21:21;0.80;;;0.80;;
18320;SDS011;54904;54.350;18.664;2023-07-13T07:23:49;0.70;;;0.70;;
18320;SDS011;54904;54.350;18.664;2023-07-13T07:26:16;0.73;;;0.60;;
18320;SDS011;54904;54.350;18.664;2023-07-13T07:28:43;2.83;;;0.80;;
18320;SDS011;54904;54.350;18.664;2023-07-13T07:31:10;0.65;;;0.65;;
18320;SDS011;54904;54.350;18.664;2023-07-13T07:33:38;0.80;;;0.77;;
18320;SDS011;54904;54.350;18.664;2023-07-13T07:36:05;1.33;;;0.82;;
18320;SDS011;54904;54.350;18.664;2023-07-13T07:38:34;1.50;;;1.10;;
18320;SDS011;54904;54.350;18.664;2023-07-13T07:41:02;0.70;;;0.70;;
18320;SDS011;54904;54.350;18.664;2023-07-13T07:43:29;0.60;;;0.60;;
18320;SDS011;54904;54.350;18.664;2023-07-13T07:45:57;0.93;;;0.90;;
18320;SDS011;54904;54.350;18.664;2023-07-13T07:48:24;2.47;;;0.90;;
18320;SDS011;54904;54.350;18.664;2023-07-13T07:50:51;0.77;;;0.77;;
18320;SDS011;54904;54.350;18.664;2023-07-13T07:53:18;0.70;;;0.70;;
18320;SDS011;54904;54.350;18.664;2023-07-13T07:55:47;0.75;;;0.75;;
18320;SDS011;54904;54.350;18.664;2023-07-13T07:58:14;0.70;;;0.70;;
18320;SDS011;54904;54.350;18.664;2023-07-13T08:00:47;0.52;;;0.52;;
18320;SDS011;54904;54.350;18.664;2023-07-13T08:03:14;0.63;;;0.63;;
18320;SDS011;54904;54.350;18.664;2023-07-13T08:05:41;0.88;;;0.80;;
18320;SDS011;54904;54.350;18.664;2023-07-13T08:08:15;0.60;;;0.60;;
18320;SDS011;54904;54.350;18.664;2023-07-13T08:10:42;1.23;;;0.80;;
18320;SDS011;54904;54.350;18.664;2023-07-13T08:13:11;0.80;;;0.80;;
18320;SDS011;54904;54.350;18.664;2023-07-13T08:15:38;1.80;;;0.90;;
18320;SDS011;54904;54.350;18.664;2023-07-13T08:18:05;1.02;;;0.90;;
18320;SDS011;54904;54.350;18.664;2023-07-13T08:20:36;2.15;;;0.63;;
18320;SDS011;54904;54.350;18.664;2023-07-13T08:23:03;2.22;;;0.90;;
18320;SDS011;54904;54.350;18.664;2023-07-13T08:25:31;0.80;;;0.80;;
18320;SDS011;54904;54.350;18.664;2023-07-13T08:27:58;0.55;;;0.55;;
18320;SDS011;54904;54.350;18.664;2023-07-13T08:30:26;0.70;;;0.70;;
18320;SDS011;54904;54.350;18.664;2023-07-13T08:32:53;0.50;;;0.50;;
18320;SDS011;54904;54.350;18.664;2023-07-13T08:35:20;0.70;;;0.70;;
18320;SDS011;54904;54.350;18.664;2023-07-13T08:37:48;0.60;;;0.60;;
18320;SDS011;54904;54.350;18.664;2023-07-13T08:40:15;0.68;;;0.68;;
18320;SDS011;54904;54.350;18.664;2023-07-13T08:42:46;0.80;;;0.80;;
18320;SDS011;54904;54.350;18.664;2023-07-13T08:45:21;1.17;;;0.82;;
18320;SDS011;54904;54.350;18.664;2023-07-13T08:47:53;1.05;;;0.80;;
18320;SDS011;54904;54.350;18.664;2023-07-13T08:50:23;0.77;;;0.77;;
18320;SDS011;54904;54.350;18.664;2023-07-13T08:52:55;0.60;;;0.60;;
18320;SDS011;54904;54.350;18.664;2023-07-13T08:55:25;0.50;;;0.50;;
18320;SDS011;54904;54.350;18.664;2023-07-13T08:57:57;0.52;;;0.52;;
18320;SDS011;54904;54.350;18.664;2023-07-13T09:00:32;1.00;;;0.75;;
18320;SDS011;54904;54.350;18.664;2023-07-13T09:03:08;3.60;;;0.80;;
18320;SDS011;54904;54.350;18.664;2023-07-13T09:05:46;0.60;;;0.60;;
18320;SDS011;54904;54.350;18.664;2023-07-13T09:08:24;0.70;;;0.70;;
18320;SDS011;54904;54.350;18.664;2023-07-13T09:11:16;0.50;;;0.50;;
18320;SDS011;54904;54.350;18.664;2023-07-13T09:13:54;0.60;;;0.60;;
18320;SDS011;54904;54.350;18.664;2023-07-13T09:16:28;0.85;;;0.85;;
18320;SDS011;54904;54.350;18.664;2023-07-13T09:18:59;0.63;;;0.63;;
18320;SDS011;54904;54.350;18.664;2023-07-13T09:21:31;0.70;;;0.70;;
18320;SDS011;54904;54.350;18.664;2023-07-13T09:24:06;0.60;;;0.60;;
18320;SDS011;54904;54.350;18.664;2023-07-13T09:26:55;0.70;;;0.70;;
18320;SDS011;54904;54.350;18.664;2023-07-13T09:29:29;2.08;;;0.60;;
18320;SDS011;54904;54.350;18.664;2023-07-13T09:32:03;0.68;;;0.50;;
18320;SDS011;54904;54.350;18.664;2023-07-13T09:34:35;2.08;;;0.60;;
18320;SDS011;54904;54.350;18.664;2023-07-13T09:37:02;0.70;;;0.70;;
18320;SDS011;54904;54.350;18.664;2023-07-13T09:39:33;0.90;;;0.90;;
18320;SDS011;54904;54.350;18.664;2023-07-13T09:42:07;0.50;;;0.50;;
18320;SDS011;54904;54.350;18.664;2023-07-13T09:44:50;0.65;;;0.65;;
18320;SDS011;54904;54.350;18.664;2023-07-13T09:47:19;0.60;;;0.60;;
18320;SDS011;54904;54.350;18.664;2023-07-13T09:49:55;0.50;;;0.50;;
18320;SDS011;54904;54.350;18.664;2023-07-13T09:52:23;0.70;;;0.70;;
18320;SDS011;54904;54.350;18.664;2023-07-13T09:54:53;0.68;;;0.68;;
18320;SDS011;54904;54.350;18.664;2023-07-13T09:57:25;2.15;;;1.30;;
18320;SDS011;54904;54.350;18.664;2023-07-13T09:59:54;1.35;;;1.00;;
18320;SDS011;54904;54.350;18.664;2023-07-13T10:02:28;0.90;;;0.90;;
18320;SDS011;54904;54.350;18.664;2023-07-13T10:05:00;0.70;;;0.70;;
18320;SDS011;54904;54.350;18.664;2023-07-13T10:07:29;0.68;;;0.60;;
18320;SDS011;54904;54.350;18.664;2023-07-13T10:09:58;0.70;;;0.70;;
18320;SDS011;54904;54.350;18.664;2023-07-13T10:12:28;0.90;;;0.85;;
18320;SDS011;54904;54.350;18.664;2023-07-13T10:14:57;0.80;;;0.80;;
18320;SDS011;54904;54.350;18.664;2023-07-13T10:17:27;0.70;;;0.70;;
18320;SDS011;54904;54.350;18.664;2023-07-13T10:20:01;0.80;;;0.80;;
18320;SDS011;54904;54.350;18.664;2023-07-13T10:22:32;0.60;;;0.60;;
18320;SDS011;54904;54.350;18.664;2023-07-13T10:25:12;0.43;;;0.43;;
18320;SDS011;54904;54.350;18.664;2023-07-13T10:27:43;2.15;;;1.15;;
18320;SDS011;54904;54.350;18.664;2023-07-13T10:30:13;1.73;;;1.10;;
18320;SDS011;54904;54.350;18.664;2023-07-13T10:32:46;0.90;;;0.90;;
18320;SDS011;54904;54.350;18.664;2023-07-13T10:35:16;2.30;;;1.25;;
18320;SDS011;54904;54.350;18.664;2023-07-13T10:37:47;1.40;;;1.30;;
18320;SDS011;54904;54.350;18.664;2023-07-13T10:40:19;1.38;;;1.00;;
18320;SDS011;54904;54.350;18.664;2023-07-13T10:42:51;1.83;;;1.00;;
18320;SDS011;54904;54.350;18.664;2023-07-13T10:45:21;1.52;;;1.20;;
18320;SDS011;54904;54.350;18.664;2023-07-13T10:47:50;1.20;;;1.10;;
18320;SDS011;54904;54.350;18.664;2023-07-13T10:50:23;0.68;;;0.68;;
18320;SDS011;54904;54.350;18.664;2023-07-13T10:52:52;1.00;;;1.00;;
18320;SDS011;54904;54.350;18.664;2023-07-13T10:55:34;0.90;;;0.90;;
18320;SDS011;54904;54.350;18.664;2023-07-13T10:58:08;0.80;;;0.80;;
18320;SDS011;54904;54.350;18.664;2023-07-13T11:00:49;0.95;;;0.95;;
18320;SDS011;54904;54.350;18.664;2023-07-13T11:03:24;0.52;;;0.52;;
18320;SDS011;54904;54.350;18.664;2023-07-13T11:06:05;0.80;;;0.80;;
18320;SDS011;54904;54.350;18.664;2023-07-13T11:08:36;0.85;;;0.85;;
18320;SDS011;54904;54.350;18.664;2023-07-13T11:11:32;0.75;;;0.75;;
18320;SDS011;54904;54.350;18.664;2023-07-13T11:14:02;1.67;;;1.23;;
18320;SDS011;54904;54.350;18.664;2023-07-13T11:16:38;1.00;;;1.00;;
18320;SDS011;54904;54.350;18.664;2023-07-13T11:19:27;0.90;;;0.90;;
18320;SDS011;54904;54.350;18.664;2023-07-13T11:22:14;1.70;;;0.90;;
18320;SDS011;54904;54.350;18.664;2023-07-13T11:24:58;0.85;;;0.85;;
18320;SDS011;54904;54.350;18.664;2023-07-13T11:27:37;0.80;;;0.80;;
18320;SDS011;54904;54.350;18.664;2023-07-13T11:30:31;0.70;;;0.70;;
18320;SDS011;54904;54.350;18.664;2023-07-13T11:33:02;1.33;;;1.00;;
18320;SDS011;54904;54.350;18.664;2023-07-13T11:35:45;0.70;;;0.70;;
18320;SDS011;54904;54.350;18.664;2023-07-13T11:38:20;1.48;;;0.60;;
18320;SDS011;54904;54.350;18.664;2023-07-13T11:40:51;1.45;;;1.10;;
18320;SDS011;54904;54.350;18.664;2023-07-13T11:43:22;0.90;;;0.90;;
18320;SDS011;54904;54.350;18.664;2023-07-13T11:45:50;0.70;;;0.70;;
18320;SDS011;54904;54.350;18.664;2023-07-13T11:48:18;1.05;;;0.80;;
18320;SDS011;54904;54.350;18.664;2023-07-13T11:50:51;1.13;;;0.88;;
18320;SDS011;54904;54.350;18.664;2023-07-13T11:53:22;0.77;;;0.77;;
18320;SDS011;54904;54.350;18.664;2023-07-13T11:55:54;0.80;;;0.80;;
18320;SDS011;54904;54.350;18.664;2023-07-13T11:58:23;1.23;;;1.02;;
18320;SDS011;54904;54.350;18.664;2023-07-13T12:00:53;0.70;;;0.70;;
18320;SDS011;54904;54.350;18.664;2023-07-13T12:03:26;0.98;;;0.80;;
18320;SDS011;54904;54.350;18.664;2023-07-13T12:06:01;1.45;;;0.98;;
18320;SDS011;54904;54.350;18.664;2023-07-13T12:08:37;0.80;;;0.80;;
18320;SDS011;54904;54.350;18.664;2023-07-13T12:11:09;0.88;;;0.88;;
18320;SDS011;54904;54.350;18.664;2023-07-13T12:13:41;0.55;;;0.55;;
18320;SDS011;54904;54.350;18.664;2023-07-13T12:16:12;1.17;;;0.70;;
18320;SDS011;54904;54.350;18.664;2023-07-13T12:18:42;1.33;;;0.88;;
18320;SDS011;54904;54.350;18.664;2023-07-13T12:21:16;0.63;;;0.63;;
18320;SDS011;54904;54.350;18.664;2023-07-13T12:23:47;0.60;;;0.60;;
18320;SDS011;54904;54.350;18.664;2023-07-13T12:26:15;1.27;;;0.82;;
18320;SDS011;54904;54.350;18.664;2023-07-13T12:28:46;0.90;;;0.90;;
18320;SDS011;54904;54.350;18.664;2023-07-13T12:31:30;0.80;;;0.80;;
18320;SDS011;54904;54.350;18.664;2023-07-13T12:34:01;1.52;;;1.05;;
18320;SDS011;54904;54.350;18.664;2023-07-13T12:36:33;2.65;;;1.00;;
18320;SDS011;54904;54.350;18.664;2023-07-13T12:39:09;1.30;;;1.00;;
18320;SDS011;54904;54.350;18.664;2023-07-13T12:41:40;1.33;;;1.25;;
18320;SDS011;54904;54.350;18.664;2023-07-13T12:44:12;1.08;;;0.98;;
18320;SDS011;54904;54.350;18.664;2023-07-13T12:46:50;1.02;;;1.00;;
18320;SDS011;54904;54.350;18.664;2023-07-13T12:49:23;1.08;;;1.00;;
18320;SDS011;54904;54.350;18.664;2023-07-13T12:51:57;4.88;;;0.98;;
18320;SDS011;54904;54.350;18.664;2023-07-13T12:54:28;0.65;;;0.65;;
18320;SDS011;54904;54.350;18.664;2023-07-13T12:56:57;1.17;;;0.90;;
18320;SDS011;54904;54.350;18.664;2023-07-13T12:59:29;0.70;;;0.70;;
18320;SDS011;54904;54.350;18.664;2023-07-13T13:02:01;0.60;;;0.60;;
18320;SDS011;54904;54.350;18.664;2023-07-13T13:04:43;0.50;;;0.50;;
18320;SDS011;54904;54.350;18.664;2023-07-13T13:07:11;0.82;;;0.70;;
18320;SDS011;54904;54.350;18.664;2023-07-13T13:09:40;0.77;;;0.70;;
18320;SDS011;54904;54.350;18.664;2023-07-13T13:12:07;0.70;;;0.70;;
18320;SDS011;54904;54.350;18.664;2023-07-13T13:14:35;0.52;;;0.52;;
18320;SDS011;54904;54.350;18.664;2023-07-13T13:17:04;0.88;;;0.80;;
18320;SDS011;54904;54.350;18.664;2023-07-13T13:19:50;0.68;;;0.60;;
18320;SDS011;54904;54.350;18.664;2023-07-13T13:22:19;0.75;;;0.60;;
18320;SDS011;54904;54.350;18.664;2023-07-13T13:24:48;2.90;;;0.85;;
18320;SDS011;54904;54.350;18.664;2023-07-13T13:27:16;0.82;;;0.80;;
18320;SDS011;54904;54.350;18.664;2023-07-13T13:29:44;0.70;;;0.70;;
18320;SDS011;54904;54.350;18.664;2023-07-13T13:32:13;0.85;;;0.65;;
18320;SDS011;54904;54.350;18.664;2023-07-13T13:34:41;0.50;;;0.50;;
18320;SDS011;54904;54.350;18.664;2023-07-13T13:37:13;1.15;;;0.80;;
18320;SDS011;54904;54.350;18.664;2023-07-13T13:39:44;4.07;;;1.10;;
18320;SDS011;54904;54.350;18.664;2023-07-13T13:42:13;1.38;;;1.10;;
18320;SDS011;54904;54.350;18.664;2023-07-13T13:44:40;2.28;;;1.00;;
18320;SDS011;54904;54.350;18.664;2023-07-13T13:47:17;1.05;;;0.70;;
18320;SDS011;54904;54.350;18.664;2023-07-13T13:49:52;0.82;;;0.82;;
18320;SDS011;54904;54.350;18.664;2023-07-13T13:52:20;0.88;;;0.88;;
18320;SDS011;54904;54.350;18.664;2023-07-13T13:54:47;1.33;;;0.80;;
18320;SDS011;54904;54.350;18.664;2023-07-13T13:57:15;0.50;;;0.50;;
18320;SDS011;54904;54.350;18.664;2023-07-13T13:59:42;0.85;;;0.80;;
18320;SDS011;54904;54.350;18.664;2023-07-13T14:02:15;0.70;;;0.70;;
18320;SDS011;54904;54.350;18.664;2023-07-13T14:04:50;0.60;;;0.60;;
18320;SDS011;54904;54.350;18.664;2023-07-13T14:07:22;0.70;;;0.65;;
18320;SDS011;54904;54.350;18.664;2023-07-13T14:09:49;0.60;;;0.60;;
18320;SDS011;54904;54.350;18.664;2023-07-13T14:12:18;1.17;;;0.88;;
18320;SDS011;54904;54.350;18.664;2023-07-13T14:14:45;0.60;;;0.60;;
18320;SDS011;54904;54.350;18.664;2023-07-13T14:17:17;0.60;;;0.60;;
18320;SDS011;54904;54.350;18.664;2023-07-13T14:19:49;0.57;;;0.57;;
18320;SDS011;54904;54.350;18.664;2023-07-13T14:22:22;1.00;;;0.60;;
18320;SDS011;54904;54.350;18.664;2023-07-13T14:24:50;0.57;;;0.50;;
18320;SDS011;54904;54.350;18.664;2023-07-13T14:27:21;0.65;;;0.65;;
18320;SDS011;54904;54.350;18.664;2023-07-13T14:29:48;0.55;;;0.55;;
18320;SDS011;54904;54.350;18.664;2023-07-13T14:32:15;0.80;;;0.80;;
18320;SDS011;54904;54.350;18.664;2023-07-13T14:34:42;0.60;;;0.60;;
18320;SDS011;54904;54.350;18.664;2023-07-13T14:37:12;2.08;;;0.85;;
18320;SDS011;54904;54.350;18.664;2023-07-13T14:39:42;0.70;;;0.70;;
18320;SDS011;54904;54.350;18.664;2023-07-13T14:42:10;0.55;;;0.55;;
18320;SDS011;54904;54.350;18.664;2023-07-13T14:44:39;0.75;;;0.75;;
18320;SDS011;54904;54.350;18.664;2023-07-13T14:47:06;0.70;;;0.70;;
18320;SDS011;54904;54.350;18.664;2023-07-13T14:49:35;0.70;;;0.70;;